• Join FlightAware (Why Join?)
  • Login
  • US Flag GB Flag 
05:43 EDT


 

Airport Tracker/Info


-or-


 

Live Flight TrackerFlight Track Log ✈ RPA3161 ✈ 07-May-2013 ✈ KBTV - KDCA

Flight Track Log - Related Links

Times and Time Zones

All times are in EDT time to prevent confusion due to time zone crossing. See the RPA3161 flight status page for this flight to view local times or setup timezone preferences in your user account.

Time Position Orientation Groundspeed Altitude Reporting Facility
EDT Latitude Longitude Course Direction KTS MPH feet Rate Location/Type
12:33 44.3156 -73.1394 195° South 268 308 7,500  Level Boston Center
12:34 44.2422 -73.1703 197° South 273 314 10,300 2,400 Climbing Boston Center
12:35 44.1689 -73.2331 212° Southwest 291 335 12,400 2,160 Climbing Boston Center
12:36 44.0936 -73.3014 213° Southwest 322 371 14,700 2,340 Climbing Boston Center
12:37 43.8917 -73.3594 195° South  Level FlightAware Approximate
12:37 44.0158 -73.3725 213° Southwest 332 382 17,100  Level Boston Center
12:38 43.7958 -73.3954 195° South  Level FlightAware Approximate
12:38 43.9361 -73.4461 214° Southwest 337 388 18,900  Level Boston Center
12:39 43.8544 -73.4908 202° Southwest 350 403 20,600 1,680 Climbing Boston Center
12:40 43.7561 -73.5236 194° South 357 411 22,300 1,560 Climbing Boston Center
12:41 43.6369 -73.5561 191° South 378 435 23,800 1,500 Climbing Boston Center
12:42 43.5283 -73.5856 191° South 389 448 25,400 1,500 Climbing Boston Center
12:43 43.4197 -73.6150 191° South 394 453 26,800 1,320 Climbing Boston Center
12:44 43.3089 -73.6500 193° South 405 466 28,100 600 Climbing Boston Center
12:45 43.1961 -73.6817 192° South 411 473 28,000 -60 Descending Boston Center
12:46 43.0831 -73.7108 191° South 411 473 28,000  Level Boston Center
12:47 42.9703 -73.7453 193° South 411 473 28,000  Level Boston Center
12:48 42.8742 -73.7717 191° South 411 473 28,000  Level Boston Center
12:49 42.7592 -73.8031 191° South 411 473 28,000  Level Boston Center
12:50 42.6444 -73.7950 177° South 411 473 28,000  Level Boston Center
12:51 42.5383 -73.7786 174° South 399 459 28,000  Level Boston Center
12:52 42.4261 -73.7592 173° South 404 465 28,000  Level Boston Center
12:53 42.3136 -73.7428 174° South 404 465 28,000  Level Boston Center
12:54 42.1889 -73.7233 173° South 404 465 28,000  Level Boston Center
12:55 42.0822 -73.7575 193° South 392 451 28,000  Level Boston Center
12:57 41.8708 -73.8603 200° South 407 468 28,000  Level New York Center
12:58 41.7675 -73.9108 200° South 407 468 28,000  Level New York Center
12:59 41.6619 -73.9669 202° Southwest 407 468 28,000  Level New York Center
13:00 41.5731 -74.0128 201° Southwest 407 468 28,000  Level New York Center
13:01 41.4719 -74.0631 200° South 401 461 28,000  Level New York Center
13:02 41.3619 -74.1158 200° South 401 461 28,000  Level New York Center
13:03 41.2606 -74.1686 201° Southwest 401 461 28,000  Level New York Center
13:04 41.1464 -74.2236 200° South 401 461 28,000  Level New York Center
13:05 41.0428 -74.2758 201° Southwest 401 461 28,000  Level New York Center
13:06 40.9394 -74.3256 200° South 401 461 28,000 -60 Level New York Center
13:07 40.8533 -74.4169 219° Southwest 396 456 27,900  Descending New York Center
13:08 40.7769 -74.5253 227° Southwest 396 456 28,000  Climbing New York Center
13:09 40.6986 -74.6278 225° Southwest 401 461 28,000 -300 Level New York Center
13:10 40.6222 -74.7356 227° Southwest 406 467 27,400 -780 Descending New York Center
13:11 40.5433 -74.8431 226° Southwest 411 473 26,500 -1,020 Descending New York Center
13:12 40.4689 -74.9478 227° Southwest 406 467 25,400 -1,080 Descending New York Center
13:13 40.3947 -75.0414 224° Southwest 395 455 24,400 -1,020 Descending New York Center
13:14 40.3244 -75.1403 227° Southwest 387 445 23,400 -1,020 Descending New York Center
13:15 40.2586 -75.2261 225° Southwest 376 433 22,400 -1,020 Descending New York Center
13:16 40.1883 -75.3194 225° Southwest 376 433 21,400 -1,020 Descending New York Center
13:17 40.1203 -75.4125 226° Southwest 369 425 20,400 -720 Descending New York Center
13:18 40.0500 -75.5028 225° Southwest 364 419 20,000 -240 Descending New York Center
13:19 39.9817 -75.5931 225° Southwest 359 413 20,000  Level New York Center
13:20 39.9153 -75.6858 227° Southwest 359 413 20,000  Level New York Center
13:21 39.8528 -75.7842 230° Southwest 359 413 20,000  Level New York Center
13:22 39.7900 -75.8825 230° Southwest 354 407 20,000  Level New York Center
13:23 39.7275 -75.9806 230° Southwest 359 413 20,000 -900 Level New York Center
13:24 39.6600 -76.0889 231° Southwest 359 413 18,200 -1,680 Descending New York Center
13:25 39.6039 -76.1761 230° Southwest 358 412 16,600 -1,920 Descending New York Center
13:27 39.4667 -76.3833 229° Southwest 331 381 12,400 -1,620 Descending Potomac TRACON
13:28 39.4000 -76.4667 224° Southwest 316 364 11,700 -840 Descending Potomac TRACON
13:29 39.3333 -76.5167 210° Southwest 315 362 10,900 -600 Descending Potomac TRACON
13:31 39.1960 -76.6266 212° Southwest  Level FlightAware Approximate
13:31 39.1833 -76.6500 212° Southwest 288 331 10,000  Level Potomac TRACON
13:32 39.1333 -76.7167 226° Southwest 290 334 10,000 -180 Level Potomac TRACON
13:33 39.0667 -76.7833 218° Southwest 285 328 9,700 -1,020 Descending Potomac TRACON
13:34 39.0167 -76.8500 226° Southwest 277 319 8,000 -1,800 Descending Potomac TRACON
13:35 38.9500 -76.9167 218° Southwest 269 310 6,200 -1,140 Descending Potomac TRACON
13:37 38.8500 -76.9500 195° South 212 244 4,600 -960 Descending Potomac TRACON
13:38 38.7833 -76.9500 180° South 205 236 3,400 -1,320 Descending Potomac TRACON
13:39 38.7333 -76.9333 165° South 202 232 2,000 -900 Descending Potomac TRACON
13:40 38.7000 -77.0000 237° Southwest 245 282 1,600 -180 Descending Potomac TRACON
13:41 38.7500 -77.0333 333° Northwest 193 222 1,700 -300 Climbing Potomac TRACON
13:42 38.8000 -77.0333 360° North 153 176 1,000 -720 Descending Potomac TRACON